Rio Tala, Argentina
Current Conditions -  °F | °C
As of 11:00 AM on Monday 24 Nov 2014 (Local Time) from SADF Reporting Station
Overcast Overcast  
Wind Chill: 70°   Ceiling: 10000
Heat Index: 70°   Visibility: 6mi
Dew Point: 63°   Wind: 6mph
Humidity: 78%   Direction: 360°N
Pressure: 29.8"   Gusts: NA
Location:  33.76°S, 59.65°W
Report Text: SADF 241400Z 36005KT 9999 FEW040 OVC10021/17 Q1009
Loading
Personal Weather Stations






























Interactive Weather Map New forecast layout! Learn more

10-Day Weather Forecast

Advertisements
Track Severe Weather on mobile